sensor_id;sensor_type;location;lat;lon;timestamp;pressure;altitude;pressure_sealevel;temperature;humidity
15880;BME280;61999;51.514;14.614;2023-03-14T00:01:10;98162.13;;;3.64;100.00
15880;BME280;61999;51.514;14.614;2023-03-14T00:03:38;98165.31;;;3.36;100.00
15880;BME280;61999;51.514;14.614;2023-03-14T00:06:08;98154.88;;;3.36;100.00
15880;BME280;61999;51.514;14.614;2023-03-14T00:08:38;98143.38;;;3.70;100.00
15880;BME280;61999;51.514;14.614;2023-03-14T00:11:08;98131.91;;;3.41;100.00
15880;BME280;61999;51.514;14.614;2023-03-14T00:13:37;98114.59;;;3.51;100.00
15880;BME280;61999;51.514;14.614;2023-03-14T00:16:08;98094.06;;;4.00;100.00
15880;BME280;61999;51.514;14.614;2023-03-14T00:18:36;98068.16;;;4.38;100.00
15880;BME280;61999;51.514;14.614;2023-03-14T00:21:06;98035.16;;;4.58;99.91
15880;BME280;61999;51.514;14.614;2023-03-14T00:23:39;98004.38;;;4.62;98.00
15880;BME280;61999;51.514;14.614;2023-03-14T00:26:10;98001.38;;;4.67;97.30
15880;BME280;61999;51.514;14.614;2023-03-14T00:28:39;98002.75;;;4.61;97.52
15880;BME280;61999;51.514;14.614;2023-03-14T00:31:10;97996.09;;;4.47;96.74
15880;BME280;61999;51.514;14.614;2023-03-14T00:33:38;97978.03;;;4.55;96.77
15880;BME280;61999;51.514;14.614;2023-03-14T00:36:09;97949.06;;;4.68;95.55
15880;BME280;61999;51.514;14.614;2023-03-14T00:38:41;97927.16;;;4.40;95.29
15880;BME280;61999;51.514;14.614;2023-03-14T00:41:12;97908.06;;;4.30;95.17
15880;BME280;61999;51.514;14.614;2023-03-14T00:43:41;97891.72;;;4.18;95.03
15880;BME280;61999;51.514;14.614;2023-03-14T00:46:09;97887.84;;;4.12;95.72
15880;BME280;61999;51.514;14.614;2023-03-14T00:48:38;97886.50;;;4.18;95.50
15880;BME280;61999;51.514;14.614;2023-03-14T00:51:08;97881.22;;;3.98;95.57
15880;BME280;61999;51.514;14.614;2023-03-14T00:53:40;97890.13;;;3.96;96.94
15880;BME280;61999;51.514;14.614;2023-03-14T00:56:11;97906.09;;;3.62;96.07
15880;BME280;61999;51.514;14.614;2023-03-14T00:58:39;97908.53;;;3.54;97.14
15880;BME280;61999;51.514;14.614;2023-03-14T01:01:10;97908.19;;;3.68;97.71
15880;BME280;61999;51.514;14.614;2023-03-14T01:03:39;97912.78;;;3.95;97.46
15880;BME280;61999;51.514;14.614;2023-03-14T01:06:13;97913.88;;;3.93;97.04
15880;BME280;61999;51.514;14.614;2023-03-14T01:08:44;97930.22;;;3.64;97.08
15880;BME280;61999;51.514;14.614;2023-03-14T01:11:16;97928.66;;;3.83;97.47
15880;BME280;61999;51.514;14.614;2023-03-14T01:13:44;97924.34;;;4.12;96.21
15880;BME280;61999;51.514;14.614;2023-03-14T01:16:14;97939.50;;;4.38;95.06
15880;BME280;61999;51.514;14.614;2023-03-14T01:18:43;97932.34;;;4.20;94.44
15880;BME280;61999;51.514;14.614;2023-03-14T01:21:15;97938.97;;;4.44;94.26
15880;BME280;61999;51.514;14.614;2023-03-14T01:23:46;97948.44;;;4.35;93.79
15880;BME280;61999;51.514;14.614;2023-03-14T01:26:17;97955.97;;;4.29;93.09
15880;BME280;61999;51.514;14.614;2023-03-14T01:28:48;97956.09;;;4.17;93.42
15880;BME280;61999;51.514;14.614;2023-03-14T01:31:17;97948.03;;;4.40;92.56
15880;BME280;61999;51.514;14.614;2023-03-14T01:33:46;97954.03;;;4.21;92.64
15880;BME280;61999;51.514;14.614;2023-03-14T01:36:14;97931.38;;;4.22;92.95
15880;BME280;61999;51.514;14.614;2023-03-14T01:38:42;97926.75;;;4.35;92.20
15880;BME280;61999;51.514;14.614;2023-03-14T01:41:16;97913.31;;;4.59;92.41
15880;BME280;61999;51.514;14.614;2023-03-14T01:43:44;97910.97;;;4.46;91.54
15880;BME280;61999;51.514;14.614;2023-03-14T01:46:29;97898.34;;;4.51;91.44
15880;BME280;61999;51.514;14.614;2023-03-14T01:49:05;97901.91;;;4.31;90.65
15880;BME280;61999;51.514;14.614;2023-03-14T01:51:42;97903.25;;;4.25;90.45
15880;BME280;61999;51.514;14.614;2023-03-14T01:54:19;97896.19;;;4.66;90.91
15880;BME280;61999;51.514;14.614;2023-03-14T01:56:56;97900.72;;;4.54;89.83
15880;BME280;61999;51.514;14.614;2023-03-14T01:59:26;97897.53;;;4.80;89.66
15880;BME280;61999;51.514;14.614;2023-03-14T02:01:57;97895.06;;;4.69;89.61
15880;BME280;61999;51.514;14.614;2023-03-14T02:04:30;97901.94;;;4.70;89.30
15880;BME280;61999;51.514;14.614;2023-03-14T02:07:06;97899.59;;;4.86;88.98
15880;BME280;61999;51.514;14.614;2023-03-14T02:09:37;97898.34;;;4.90;88.77
15880;BME280;61999;51.514;14.614;2023-03-14T02:12:09;97885.69;;;4.95;88.47
15880;BME280;61999;51.514;14.614;2023-03-14T02:14:39;97893.13;;;5.00;88.01
15880;BME280;61999;51.514;14.614;2023-03-14T02:17:09;97895.34;;;4.75;88.47
15880;BME280;61999;51.514;14.614;2023-03-14T02:19:56;97892.31;;;4.70;88.31
15880;BME280;61999;51.514;14.614;2023-03-14T02:22:25;97890.13;;;4.75;88.48
15880;BME280;61999;51.514;14.614;2023-03-14T02:25:03;97877.75;;;4.68;87.48
15880;BME280;61999;51.514;14.614;2023-03-14T02:27:36;97876.38;;;4.83;87.83
15880;BME280;61999;51.514;14.614;2023-03-14T02:30:08;97861.38;;;4.85;87.34
15880;BME280;61999;51.514;14.614;2023-03-14T02:32:43;97858.25;;;4.91;87.06
15880;BME280;61999;51.514;14.614;2023-03-14T02:35:17;97854.38;;;4.95;86.79
15880;BME280;61999;51.514;14.614;2023-03-14T02:37:52;97860.28;;;4.97;86.26
15880;BME280;61999;51.514;14.614;2023-03-14T02:40:21;97854.38;;;4.95;86.01
15880;BME280;61999;51.514;14.614;2023-03-14T02:42:50;97855.47;;;4.93;86.20
15880;BME280;61999;51.514;14.614;2023-03-14T02:45:46;97853.84;;;4.92;86.29
15880;BME280;61999;51.514;14.614;2023-03-14T02:48:19;97854.94;;;4.89;86.40
15880;BME280;61999;51.514;14.614;2023-03-14T02:50:50;97853.56;;;4.85;86.57
15880;BME280;61999;51.514;14.614;2023-03-14T02:53:24;97845.19;;;4.33;84.77
15880;BME280;61999;51.514;14.614;2023-03-14T02:55:53;97844.09;;;4.26;85.70
15880;BME280;61999;51.514;14.614;2023-03-14T02:58:22;97847.00;;;3.72;85.04
15880;BME280;61999;51.514;14.614;2023-03-14T03:00:50;97843.75;;;3.90;86.91
15880;BME280;61999;51.514;14.614;2023-03-14T03:03:19;97843.09;;;3.88;86.22
15880;BME280;61999;51.514;14.614;2023-03-14T03:05:49;97843.72;;;3.09;88.18
15880;BME280;61999;51.514;14.614;2023-03-14T03:08:17;97848.22;;;3.07;90.93
15880;BME280;61999;51.514;14.614;2023-03-14T03:10:45;97844.44;;;2.69;90.75
15880;BME280;61999;51.514;14.614;2023-03-14T03:13:13;97843.31;;;2.62;92.28
15880;BME280;61999;51.514;14.614;2023-03-14T03:15:43;97846.91;;;2.92;92.49
15880;BME280;61999;51.514;14.614;2023-03-14T03:18:11;97848.63;;;2.81;91.07
15880;BME280;61999;51.514;14.614;2023-03-14T03:20:39;97845.50;;;2.46;92.36
15880;BME280;61999;51.514;14.614;2023-03-14T03:23:07;97840.34;;;2.34;93.32
15880;BME280;61999;51.514;14.614;2023-03-14T03:25:35;97839.59;;;2.44;93.95
15880;BME280;61999;51.514;14.614;2023-03-14T03:28:03;97844.03;;;1.66;96.92
15880;BME280;61999;51.514;14.614;2023-03-14T03:30:37;97836.97;;;1.68;99.30
15880;BME280;61999;51.514;14.614;2023-03-14T03:33:07;97834.84;;;1.62;99.61
15880;BME280;61999;51.514;14.614;2023-03-14T03:35:42;97825.06;;;2.09;99.63
15880;BME280;61999;51.514;14.614;2023-03-14T03:38:11;97826.97;;;2.07;95.56
15880;BME280;61999;51.514;14.614;2023-03-14T03:40:39;97818.84;;;2.32;95.19
15880;BME280;61999;51.514;14.614;2023-03-14T03:43:07;97827.13;;;1.94;94.97
15880;BME280;61999;51.514;14.614;2023-03-14T03:45:35;97827.97;;;1.72;95.71
15880;BME280;61999;51.514;14.614;2023-03-14T03:48:04;97820.91;;;1.85;96.77
15880;BME280;61999;51.514;14.614;2023-03-14T03:50:33;97825.63;;;1.58;96.14
15880;BME280;61999;51.514;14.614;2023-03-14T03:53:01;97821.88;;;1.62;96.97
15880;BME280;61999;51.514;14.614;2023-03-14T03:55:29;97820.09;;;1.51;98.40
15880;BME280;61999;51.514;14.614;2023-03-14T03:57:57;97831.41;;;1.61;97.07
15880;BME280;61999;51.514;14.614;2023-03-14T04:00:25;97818.09;;;1.55;95.75
15880;BME280;61999;51.514;14.614;2023-03-14T04:02:53;97816.53;;;1.52;97.21
15880;BME280;61999;51.514;14.614;2023-03-14T04:05:21;97824.94;;;1.44;97.33
15880;BME280;61999;51.514;14.614;2023-03-14T04:07:50;97831.88;;;1.55;96.93
15880;BME280;61999;51.514;14.614;2023-03-14T04:10:18;97838.03;;;1.43;96.81
15880;BME280;61999;51.514;14.614;2023-03-14T04:12:46;97834.72;;;1.30;96.42
15880;BME280;61999;51.514;14.614;2023-03-14T04:15:14;97826.25;;;1.16;96.61
15880;BME280;61999;51.514;14.614;2023-03-14T04:17:42;97830.50;;;1.28;95.44
15880;BME280;61999;51.514;14.614;2023-03-14T04:20:11;97830.59;;;1.16;95.34
15880;BME280;61999;51.514;14.614;2023-03-14T04:22:39;97833.22;;;1.04;95.54
15880;BME280;61999;51.514;14.614;2023-03-14T04:25:11;97836.16;;;1.22;94.93
15880;BME280;61999;51.514;14.614;2023-03-14T04:27:39;97828.47;;;1.21;94.89
15880;BME280;61999;51.514;14.614;2023-03-14T04:30:09;97830.16;;;1.22;94.50
15880;BME280;61999;51.514;14.614;2023-03-14T04:32:39;97825.53;;;1.48;93.61
15880;BME280;61999;51.514;14.614;2023-03-14T04:35:08;97814.28;;;1.70;90.87
15880;BME280;61999;51.514;14.614;2023-03-14T04:37:36;97807.44;;;1.69;89.80
15880;BME280;61999;51.514;14.614;2023-03-14T04:40:06;97808.44;;;1.34;91.18
15880;BME280;61999;51.514;14.614;2023-03-14T04:42:35;97813.38;;;1.48;90.72
15880;BME280;61999;51.514;14.614;2023-03-14T04:45:05;97816.22;;;1.34;90.62
15880;BME280;61999;51.514;14.614;2023-03-14T04:47:33;97811.50;;;1.28;90.61
15880;BME280;61999;51.514;14.614;2023-03-14T04:50:02;97809.38;;;1.11;91.01
15880;BME280;61999;51.514;14.614;2023-03-14T04:52:30;97812.22;;;1.19;91.17
15880;BME280;61999;51.514;14.614;2023-03-14T04:54:58;97824.09;;;1.21;89.99
15880;BME280;61999;51.514;14.614;2023-03-14T04:57:26;97816.22;;;1.34;89.91
15880;BME280;61999;51.514;14.614;2023-03-14T04:59:55;97809.38;;;1.22;89.83
15880;BME280;61999;51.514;14.614;2023-03-14T05:02:24;97818.00;;;1.45;88.33
15880;BME280;61999;51.514;14.614;2023-03-14T05:04:51;97806.19;;;1.30;88.46
15880;BME280;61999;51.514;14.614;2023-03-14T05:07:19;97808.75;;;1.41;88.37
15880;BME280;61999;51.514;14.614;2023-03-14T05:09:47;97807.47;;;1.46;87.63
15880;BME280;61999;51.514;14.614;2023-03-14T05:12:15;97801.13;;;1.17;87.28
15880;BME280;61999;51.514;14.614;2023-03-14T05:14:43;97815.97;;;1.03;88.41
15880;BME280;61999;51.514;14.614;2023-03-14T05:17:13;97808.09;;;1.27;87.61
15880;BME280;61999;51.514;14.614;2023-03-14T05:19:41;97801.47;;;1.23;87.70
15880;BME280;61999;51.514;14.614;2023-03-14T05:22:10;97791.66;;;1.49;85.59
15880;BME280;61999;51.514;14.614;2023-03-14T05:24:38;97797.31;;;1.43;85.40
15880;BME280;61999;51.514;14.614;2023-03-14T05:27:06;97789.75;;;1.52;85.25
15880;BME280;61999;51.514;14.614;2023-03-14T05:29:34;97786.41;;;1.72;83.37
15880;BME280;61999;51.514;14.614;2023-03-14T05:32:02;97777.03;;;1.37;83.32
15880;BME280;61999;51.514;14.614;2023-03-14T05:34:32;97776.56;;;1.43;84.43
15880;BME280;61999;51.514;14.614;2023-03-14T05:37:00;97775.16;;;1.39;84.55
15880;BME280;61999;51.514;14.614;2023-03-14T05:39:28;97764.91;;;1.70;84.64
15880;BME280;61999;51.514;14.614;2023-03-14T05:41:56;97763.84;;;1.72;81.79
15880;BME280;61999;51.514;14.614;2023-03-14T05:44:24;97764.03;;;1.48;82.01
15880;BME280;61999;51.514;14.614;2023-03-14T05:46:52;97762.78;;;1.75;82.50
15880;BME280;61999;51.514;14.614;2023-03-14T05:49:20;97769.47;;;1.45;81.96
15880;BME280;61999;51.514;14.614;2023-03-14T05:51:50;97764.53;;;1.42;83.24
15880;BME280;61999;51.514;14.614;2023-03-14T05:54:18;97768.28;;;1.38;82.54
15880;BME280;61999;51.514;14.614;2023-03-14T05:56:46;97787.84;;;1.65;82.57
15880;BME280;61999;51.514;14.614;2023-03-14T05:59:14;97782.63;;;1.76;80.78
15880;BME280;61999;51.514;14.614;2023-03-14T06:01:42;97790.47;;;1.65;80.99
15880;BME280;61999;51.514;14.614;2023-03-14T06:04:10;97791.38;;;1.75;80.50
15880;BME280;61999;51.514;14.614;2023-03-14T06:06:37;97789.69;;;1.97;80.11
15880;BME280;61999;51.514;14.614;2023-03-14T06:09:07;97785.03;;;1.68;78.73
15880;BME280;61999;51.514;14.614;2023-03-14T06:11:35;97772.69;;;1.81;79.57
15880;BME280;61999;51.514;14.614;2023-03-14T06:14:03;97780.47;;;1.81;78.38
15880;BME280;61999;51.514;14.614;2023-03-14T06:16:31;97775.28;;;1.81;78.85
15880;BME280;61999;51.514;14.614;2023-03-14T06:18:59;97790.00;;;2.03;77.52
15880;BME280;61999;51.514;14.614;2023-03-14T06:21:27;97781.53;;;1.79;77.99
15880;BME280;61999;51.514;14.614;2023-03-14T06:23:55;97783.78;;;1.83;77.93
15880;BME280;61999;51.514;14.614;2023-03-14T06:26:24;97792.13;;;2.09;77.27
15880;BME280;61999;51.514;14.614;2023-03-14T06:28:52;97794.91;;;1.85;76.66
15880;BME280;61999;51.514;14.614;2023-03-14T06:31:20;97799.63;;;1.80;77.43
15880;BME280;61999;51.514;14.614;2023-03-14T06:33:48;97806.66;;;2.01;76.71
15880;BME280;61999;51.514;14.614;2023-03-14T06:36:16;97805.00;;;2.32;76.03
15880;BME280;61999;51.514;14.614;2023-03-14T06:38:44;97802.53;;;2.30;75.22
15880;BME280;61999;51.514;14.614;2023-03-14T06:41:12;97811.53;;;2.26;75.21
15880;BME280;61999;51.514;14.614;2023-03-14T06:43:42;97811.69;;;2.46;75.40
15880;BME280;61999;51.514;14.614;2023-03-14T06:46:10;97819.03;;;2.40;74.17
15880;BME280;61999;51.514;14.614;2023-03-14T06:48:38;97814.13;;;2.26;74.64
15880;BME280;61999;51.514;14.614;2023-03-14T06:51:06;97821.19;;;2.35;73.60
15880;BME280;61999;51.514;14.614;2023-03-14T06:53:34;97833.81;;;2.40;74.32
15880;BME280;61999;51.514;14.614;2023-03-14T06:56:02;97817.66;;;2.36;74.49
15880;BME280;61999;51.514;14.614;2023-03-14T06:58:30;97823.09;;;2.33;74.19
15880;BME280;61999;51.514;14.614;2023-03-14T07:01:00;97821.38;;;2.65;73.82
15880;BME280;61999;51.514;14.614;2023-03-14T07:03:28;97824.69;;;2.67;73.20
15880;BME280;61999;51.514;14.614;2023-03-14T07:05:56;97825.72;;;2.54;72.01
15880;BME280;61999;51.514;14.614;2023-03-14T07:08:24;97837.03;;;2.32;73.82
15880;BME280;61999;51.514;14.614;2023-03-14T07:10:52;97828.94;;;2.47;72.94
15880;BME280;61999;51.514;14.614;2023-03-14T07:13:20;97844.28;;;2.50;73.22
15880;BME280;61999;51.514;14.614;2023-03-14T07:15:48;97840.75;;;2.51;73.05
15880;BME280;61999;51.514;14.614;2023-03-14T07:18:17;97838.91;;;2.62;72.83
15880;BME280;61999;51.514;14.614;2023-03-14T07:20:45;97865.09;;;2.50;72.09
15880;BME280;61999;51.514;14.614;2023-03-14T07:23:15;97860.66;;;2.40;73.18
15880;BME280;61999;51.514;14.614;2023-03-14T07:25:43;97857.09;;;2.42;73.17
15880;BME280;61999;51.514;14.614;2023-03-14T07:28:11;97848.06;;;2.57;72.72
15880;BME280;61999;51.514;14.614;2023-03-14T07:30:39;97849.56;;;3.01;72.86
15880;BME280;61999;51.514;14.614;2023-03-14T07:33:07;97858.19;;;3.23;71.20
15880;BME280;61999;51.514;14.614;2023-03-14T07:35:38;97854.38;;;3.27;70.05
15880;BME280;61999;51.514;14.614;2023-03-14T07:38:06;97843.50;;;3.43;70.44
15880;BME280;61999;51.514;14.614;2023-03-14T07:40:34;97825.69;;;3.48;69.51
15880;BME280;61999;51.514;14.614;2023-03-14T07:43:02;97827.97;;;3.11;69.29
15880;BME280;61999;51.514;14.614;2023-03-14T07:45:30;97822.59;;;3.33;69.70
15880;BME280;61999;51.514;14.614;2023-03-14T07:47:58;97849.00;;;2.98;70.11
15880;BME280;61999;51.514;14.614;2023-03-14T07:50:26;97843.47;;;3.12;70.00
15880;BME280;61999;51.514;14.614;2023-03-14T07:52:56;97832.97;;;3.23;69.18
15880;BME280;61999;51.514;14.614;2023-03-14T07:55:24;97824.84;;;3.47;68.31
15880;BME280;61999;51.514;14.614;2023-03-14T07:57:52;97841.25;;;3.28;67.91
15880;BME280;61999;51.514;14.614;2023-03-14T08:00:20;97831.25;;;3.13;68.26
15880;BME280;61999;51.514;14.614;2023-03-14T08:02:49;97827.25;;;3.29;67.94
15880;BME280;61999;51.514;14.614;2023-03-14T08:05:17;97828.59;;;3.64;66.61
15880;BME280;61999;51.514;14.614;2023-03-14T08:07:45;97837.78;;;3.59;66.79
15880;BME280;61999;51.514;14.614;2023-03-14T08:10:14;97830.91;;;3.48;66.79
15880;BME280;61999;51.514;14.614;2023-03-14T08:12:48;97827.31;;;3.89;67.49
15880;BME280;61999;51.514;14.614;2023-03-14T08:15:16;97826.31;;;3.71;65.65
15880;BME280;61999;51.514;14.614;2023-03-14T08:17:44;97827.34;;;3.49;66.03
15880;BME280;61999;51.514;14.614;2023-03-14T08:20:18;97823.09;;;3.48;67.06
15880;BME280;61999;51.514;14.614;2023-03-14T08:22:46;97824.53;;;3.71;66.82
15880;BME280;61999;51.514;14.614;2023-03-14T08:25:16;97821.19;;;4.19;64.95
15880;BME280;61999;51.514;14.614;2023-03-14T08:27:44;97811.69;;;4.09;64.52
15880;BME280;61999;51.514;14.614;2023-03-14T08:30:16;97818.41;;;4.11;62.67
15880;BME280;61999;51.514;14.614;2023-03-14T08:32:45;97834.03;;;3.92;63.48
15880;BME280;61999;51.514;14.614;2023-03-14T08:35:14;97828.66;;;3.84;64.49
15880;BME280;61999;51.514;14.614;2023-03-14T08:37:42;97824.16;;;3.86;64.50
15880;BME280;61999;51.514;14.614;2023-03-14T08:40:11;97838.88;;;3.56;64.16
15880;BME280;61999;51.514;14.614;2023-03-14T08:42:41;97824.66;;;3.70;64.69
15880;BME280;61999;51.514;14.614;2023-03-14T08:45:13;97812.03;;;3.75;65.00
15880;BME280;61999;51.514;14.614;2023-03-14T08:47:41;97815.53;;;4.14;64.40
15880;BME280;61999;51.514;14.614;2023-03-14T08:50:11;97825.63;;;3.79;63.88
15880;BME280;61999;51.514;14.614;2023-03-14T08:52:42;97812.59;;;3.79;64.62
15880;BME280;61999;51.514;14.614;2023-03-14T08:55:10;97811.97;;;4.06;64.58
15880;BME280;61999;51.514;14.614;2023-03-14T08:57:38;97819.22;;;3.92;63.79
15880;BME280;61999;51.514;14.614;2023-03-14T09:00:09;97816.75;;;3.91;63.74
15880;BME280;61999;51.514;14.614;2023-03-14T09:02:41;97820.06;;;4.03;64.19
15880;BME280;61999;51.514;14.614;2023-03-14T09:05:10;97826.81;;;3.55;63.51
15880;BME280;61999;51.514;14.614;2023-03-14T09:07:39;97830.16;;;3.77;63.35
15880;BME280;61999;51.514;14.614;2023-03-14T09:10:09;97816.88;;;3.99;63.56
15880;BME280;61999;51.514;14.614;2023-03-14T09:12:37;97822.13;;;4.18;62.01
15880;BME280;61999;51.514;14.614;2023-03-14T09:15:09;97830.72;;;3.90;63.54
15880;BME280;61999;51.514;14.614;2023-03-14T09:17:37;97832.91;;;3.85;63.44
15880;BME280;61999;51.514;14.614;2023-03-14T09:20:06;97829.13;;;4.18;62.31
15880;BME280;61999;51.514;14.614;2023-03-14T09:22:36;97832.41;;;4.30;62.07
15880;BME280;61999;51.514;14.614;2023-03-14T09:25:05;97832.28;;;4.22;62.21
15880;BME280;61999;51.514;14.614;2023-03-14T09:27:33;97832.34;;;3.81;62.62
15880;BME280;61999;51.514;14.614;2023-03-14T09:30:01;97824.72;;;4.18;62.51
15880;BME280;61999;51.514;14.614;2023-03-14T09:32:31;97834.50;;;4.16;62.60
15880;BME280;61999;51.514;14.614;2023-03-14T09:34:59;97837.09;;;4.16;63.24
15880;BME280;61999;51.514;14.614;2023-03-14T09:37:27;97843.59;;;3.82;64.02
15880;BME280;61999;51.514;14.614;2023-03-14T09:39:55;97844.72;;;3.98;62.83
15880;BME280;61999;51.514;14.614;2023-03-14T09:42:26;97847.22;;;4.00;62.68
15880;BME280;61999;51.514;14.614;2023-03-14T09:44:59;97848.06;;;4.20;62.20
15880;BME280;61999;51.514;14.614;2023-03-14T09:47:32;97840.66;;;4.15;63.07
15880;BME280;61999;51.514;14.614;2023-03-14T09:50:02;97837.75;;;4.18;61.96
15880;BME280;61999;51.514;14.614;2023-03-14T09:52:35;97823.34;;;4.82;59.94
15880;BME280;61999;51.514;14.614;2023-03-14T09:55:10;97833.00;;;4.53;60.08
15880;BME280;61999;51.514;14.614;2023-03-14T09:57:41;97845.31;;;4.41;61.51
15880;BME280;61999;51.514;14.614;2023-03-14T10:00:16;97836.84;;;4.58;62.09
15880;BME280;61999;51.514;14.614;2023-03-14T10:02:53;97843.81;;;4.29;61.21
15880;BME280;61999;51.514;14.614;2023-03-14T10:05:24;97835.16;;;4.48;61.19
15880;BME280;61999;51.514;14.614;2023-03-14T10:07:54;97850.25;;;4.44;61.93
15880;BME280;61999;51.514;14.614;2023-03-14T10:10:26;97845.06;;;4.83;60.66
15880;BME280;61999;51.514;14.614;2023-03-14T10:12:59;97851.13;;;4.74;60.50
15880;BME280;61999;51.514;14.614;2023-03-14T10:15:32;97857.56;;;4.40;59.88
15880;BME280;61999;51.514;14.614;2023-03-14T10:18:10;97860.41;;;4.28;61.64
15880;BME280;61999;51.514;14.614;2023-03-14T10:20:42;97856.41;;;4.04;60.80
15880;BME280;61999;51.514;14.614;2023-03-14T10:23:26;97852.19;;;4.42;59.96
15880;BME280;61999;51.514;14.614;2023-03-14T10:26:06;97864.00;;;4.27;58.88
15880;BME280;61999;51.514;14.614;2023-03-14T10:28:39;97856.84;;;4.09;58.74
15880;BME280;61999;51.514;14.614;2023-03-14T10:31:08;97845.44;;;3.91;58.94
15880;BME280;61999;51.514;14.614;2023-03-14T10:33:38;97865.09;;;3.64;58.58
15880;BME280;61999;51.514;14.614;2023-03-14T10:36:19;97859.81;;;3.85;58.49
15880;BME280;61999;51.514;14.614;2023-03-14T10:38:49;97867.75;;;3.84;59.05
15880;BME280;61999;51.514;14.614;2023-03-14T10:41:24;97853.56;;;4.27;57.93
15880;BME280;61999;51.514;14.614;2023-03-14T10:43:57;97858.47;;;4.10;57.40
15880;BME280;61999;51.514;14.614;2023-03-14T10:46:30;97868.63;;;3.94;58.30
15880;BME280;61999;51.514;14.614;2023-03-14T10:49:05;97855.97;;;3.99;59.38
15880;BME280;61999;51.514;14.614;2023-03-14T10:51:34;97859.56;;;3.98;58.24
15880;BME280;61999;51.514;14.614;2023-03-14T10:54:12;97859.50;;;3.79;58.69
15880;BME280;61999;51.514;14.614;2023-03-14T10:56:40;97851.03;;;3.96;58.38
15880;BME280;61999;51.514;14.614;2023-03-14T10:59:15;97859.84;;;4.05;58.20
15880;BME280;61999;51.514;14.614;2023-03-14T11:01:53;97866.78;;;3.85;57.74
15880;BME280;61999;51.514;14.614;2023-03-14T11:04:55;97852.75;;;4.16;57.34
15880;BME280;61999;51.514;14.614;2023-03-14T11:07:39;97858.91;;;4.15;57.15
15880;BME280;61999;51.514;14.614;2023-03-14T11:10:18;97843.09;;;3.88;58.05
15880;BME280;61999;51.514;14.614;2023-03-14T11:13:02;97844.47;;;4.02;57.80
15880;BME280;61999;51.514;14.614;2023-03-14T11:15:39;97841.94;;;4.60;56.62
15880;BME280;61999;51.514;14.614;2023-03-14T11:18:46;97842.94;;;3.99;58.04
15880;BME280;61999;51.514;14.614;2023-03-14T11:21:23;97840.66;;;4.35;58.55
15880;BME280;61999;51.514;14.614;2023-03-14T11:24:14;97827.84;;;4.90;56.97
15880;BME280;61999;51.514;14.614;2023-03-14T11:26:53;97842.31;;;4.16;58.29
15880;BME280;61999;51.514;14.614;2023-03-14T11:29:31;97828.00;;;4.79;58.96
15880;BME280;61999;51.514;14.614;2023-03-14T11:32:13;97833.25;;;4.40;58.91
15880;BME280;61999;51.514;14.614;2023-03-14T11:34:50;97839.69;;;4.36;59.41
15880;BME280;61999;51.514;14.614;2023-03-14T11:37:26;97841.63;;;4.73;58.80
15880;BME280;61999;51.514;14.614;2023-03-14T11:40:05;97840.28;;;4.69;59.08
15880;BME280;61999;51.514;14.614;2023-03-14T11:42:38;97842.28;;;4.94;58.80
15880;BME280;61999;51.514;14.614;2023-03-14T11:45:19;97843.81;;;4.68;58.31
15880;BME280;61999;51.514;14.614;2023-03-14T11:47:57;97829.41;;;4.34;59.16
15880;BME280;61999;51.514;14.614;2023-03-14T11:50:29;97831.34;;;4.71;59.06
15880;BME280;61999;51.514;14.614;2023-03-14T11:53:08;97834.88;;;4.41;57.74
15880;BME280;61999;51.514;14.614;2023-03-14T11:55:41;97837.38;;;4.62;57.48
15880;BME280;61999;51.514;14.614;2023-03-14T11:58:16;97825.56;;;4.38;59.22
15880;BME280;61999;51.514;14.614;2023-03-14T12:00:49;97828.31;;;4.37;58.03
15880;BME280;61999;51.514;14.614;2023-03-14T12:03:29;97829.00;;;4.58;58.36
15880;BME280;61999;51.514;14.614;2023-03-14T12:06:13;97820.47;;;4.76;57.24
15880;BME280;61999;51.514;14.614;2023-03-14T12:08:50;97822.81;;;5.26;56.42
15880;BME280;61999;51.514;14.614;2023-03-14T12:11:31;97811.00;;;5.22;56.82
15880;BME280;61999;51.514;14.614;2023-03-14T12:14:00;97805.44;;;4.97;56.55
15880;BME280;61999;51.514;14.614;2023-03-14T12:16:35;97809.78;;;5.16;56.77
15880;BME280;61999;51.514;14.614;2023-03-14T12:19:35;97812.63;;;4.76;57.50
15880;BME280;61999;51.514;14.614;2023-03-14T12:22:25;97805.78;;;4.46;59.12
15880;BME280;61999;51.514;14.614;2023-03-14T12:25:05;97801.56;;;5.01;57.72
15880;BME280;61999;51.514;14.614;2023-03-14T12:28:18;97797.81;;;4.67;57.62
15880;BME280;61999;51.514;14.614;2023-03-14T12:30:47;97804.25;;;5.29;55.08
15880;BME280;61999;51.514;14.614;2023-03-14T12:33:33;97787.53;;;4.46;58.41
15880;BME280;61999;51.514;14.614;2023-03-14T12:36:50;97792.56;;;5.23;57.18
15880;BME280;61999;51.514;14.614;2023-03-14T12:39:33;97791.38;;;5.73;56.70
15880;BME280;61999;51.514;14.614;2023-03-14T12:42:12;97780.50;;;5.95;56.11
15880;BME280;61999;51.514;14.614;2023-03-14T12:44:46;97777.09;;;6.57;56.39
15880;BME280;61999;51.514;14.614;2023-03-14T12:47:52;97780.03;;;5.82;54.07
15880;BME280;61999;51.514;14.614;2023-03-14T12:50:28;97777.38;;;4.52;57.12
15880;BME280;61999;51.514;14.614;2023-03-14T12:56:41;97779.44;;;4.68;57.93
15880;BME280;61999;51.514;14.614;2023-03-14T12:59:30;97783.81;;;4.38;57.71
15880;BME280;61999;51.514;14.614;2023-03-14T13:02:23;97772.09;;;4.91;57.91
15880;BME280;61999;51.514;14.614;2023-03-14T13:05:02;97767.69;;;4.82;57.26
15880;BME280;61999;51.514;14.614;2023-03-14T13:08:03;97778.41;;;4.79;56.86
15880;BME280;61999;51.514;14.614;2023-03-14T13:10:42;97776.41;;;4.53;57.29
15880;BME280;61999;51.514;14.614;2023-03-14T13:13:20;97769.50;;;5.46;55.92
15880;BME280;61999;51.514;14.614;2023-03-14T13:15:55;97769.75;;;4.88;55.54
15880;BME280;61999;51.514;14.614;2023-03-14T13:18:33;97761.22;;;5.96;54.62
15880;BME280;61999;51.514;14.614;2023-03-14T13:21:06;97767.41;;;6.31;52.35
15880;BME280;61999;51.514;14.614;2023-03-14T13:23:38;97756.81;;;6.59;51.49
15880;BME280;61999;51.514;14.614;2023-03-14T13:26:13;97751.13;;;6.89;50.18
15880;BME280;61999;51.514;14.614;2023-03-14T13:28:42;97751.41;;;6.78;50.37